Time;durP1;ratioP1;P1;durP2;ratioP2;P2;SDS_P1;SDS_P2;PMS_P1;PMS_P2;Temp;Humidity;BMP_temperature;BMP_pressure;BME280_temperature;BME280_humidity;BME280_pressure;Samples;Min_cycle;Max_cycle;Signal;HPM_P1;HPM_P2
2022/03/28 00:01:20;;;;;;;20.30;9.40;;;;;;;-1.62;48.68;100376.59;108943;1279;138905;-60
2022/03/28 00:03:48;;;;;;;20.40;9.60;;;;;;;-1.64;48.78;100376.02;109257;1277;23638;-60
2022/03/28 00:06:17;;;;;;;30.10;10.70;;;;;;;-1.65;48.98;100377.60;109276;1277;22591;-60
2022/03/28 00:08:46;;;;;;;27.10;8.70;;;;;;;-1.66;49.07;100381.80;109130;1277;138816;-60
2022/03/28 00:11:17;;;;;;;28.60;11.00;;;;;;;-1.68;49.13;100383.23;109229;1276;23292;-60
2022/03/28 00:13:49;;;;;;;29.10;10.40;;;;;;;-1.70;49.43;100379.73;109121;1277;137824;-60
2022/03/28 00:16:17;;;;;;;33.20;10.10;;;;;;;-1.71;49.42;100375.89;107154;1277;22661;-60
2022/03/28 00:18:45;;;;;;;28.30;10.30;;;;;;;-1.73;49.58;100367.06;104745;1277;22598;-60
2022/03/28 00:21:13;;;;;;;22.30;9.80;;;;;;;-1.75;49.63;100367.64;109069;1277;138130;-59
2022/03/28 00:23:41;;;;;;;26.00;9.90;;;;;;;-1.77;49.67;100373.86;109267;1277;22380;-60
2022/03/28 00:26:09;;;;;;;27.90;10.20;;;;;;;-1.78;49.77;100370.59;109133;1277;138702;-60
2022/03/28 00:28:38;;;;;;;26.60;10.00;;;;;;;-1.80;49.79;100371.27;109246;1277;22405;-59
2022/03/28 00:31:07;;;;;;;21.10;10.40;;;;;;;-1.81;49.93;100373.37;109174;1277;138998;-59
2022/03/28 00:33:35;;;;;;;25.30;9.50;;;;;;;-1.83;50.12;100373.69;109240;1277;22564;-59
2022/03/28 00:36:04;;;;;;;24.60;11.00;;;;;;;-1.83;50.19;100377.45;109230;1277;23339;-60
2022/03/28 00:38:33;;;;;;;25.30;9.80;;;;;;;-1.85;50.16;100371.86;109128;1277;139758;-57
2022/03/28 00:41:01;;;;;;;29.20;11.10;;;;;;;-1.87;50.24;100367.52;109280;1277;22474;-58
2022/03/28 00:43:29;;;;;;;25.50;11.00;;;;;;;-1.88;50.22;100362.71;109131;1277;138415;-58
2022/03/28 00:45:57;;;;;;;24.10;10.70;;;;;;;-1.90;50.30;100360.90;109269;1277;22519;-62
2022/03/28 00:48:45;;;;;;;24.90;10.40;;;;;;;-1.91;50.53;100364.45;109150;1278;23077;-62
2022/03/28 00:51:16;;;;;;;25.60;11.40;;;;;;;-1.92;50.57;100363.45;109126;1277;138065;-61
2022/03/28 00:53:46;;;;;;;24.80;10.70;;;;;;;-1.93;50.46;100362.17;108984;1278;22430;-62
2022/03/28 00:56:15;;;;;;;31.20;12.30;;;;;;;-1.94;50.55;100361.67;109172;1277;137720;-61
2022/03/28 00:58:43;;;;;;;27.30;12.80;;;;;;;-1.95;50.66;100356.09;109092;1277;22434;-62
2022/03/28 01:01:11;;;;;;;31.30;12.80;;;;;;;-1.96;50.63;100350.91;108922;1277;138118;-61
2022/03/28 01:03:39;;;;;;;36.30;12.60;;;;;;;-1.96;50.65;100352.30;109220;1277;22521;-61
2022/03/28 01:06:08;;;;;;;30.40;12.90;;;;;;;-1.97;50.77;100356.34;109250;1277;22421;-61
2022/03/28 01:08:36;;;;;;;26.20;11.50;;;;;;;-1.99;50.80;100355.81;109155;1277;138707;-61
2022/03/28 01:11:06;;;;;;;31.20;11.90;;;;;;;-2.01;50.90;100355.84;109239;1277;22528;-61
2022/03/28 01:13:38;;;;;;;28.60;10.30;;;;;;;-2.05;51.15;100346.67;109130;1277;137798;-61
2022/03/28 01:16:06;;;;;;;23.40;10.60;;;;;;;-2.08;51.19;100340.94;109236;1277;22483;-62
2022/03/28 01:18:34;;;;;;;19.50;9.20;;;;;;;-2.11;51.34;100344.06;109257;1277;22582;-61
2022/03/28 01:21:04;;;;;;;19.70;8.50;;;;;;;-2.15;51.44;100344.27;109151;1277;138510;-62
2022/03/28 01:23:32;;;;;;;19.60;8.50;;;;;;;-2.17;51.62;100343.80;109248;1276;22260;-62
2022/03/28 01:26:00;;;;;;;22.20;9.20;;;;;;;-2.19;51.74;100344.22;107582;1277;139721;-61
2022/03/28 01:28:29;;;;;;;29.20;9.80;;;;;;;-2.20;51.64;100350.11;104834;1277;25101;-62
2022/03/28 01:30:58;;;;;;;29.30;9.90;;;;;;;-2.21;51.69;100350.77;109105;1277;138767;-62
2022/03/28 01:33:26;;;;;;;33.90;11.30;;;;;;;-2.23;51.90;100346.66;109165;1278;22528;-62
2022/03/28 01:35:54;;;;;;;27.10;11.30;;;;;;;-2.23;51.78;100344.05;109212;1277;22409;-63
2022/03/28 01:38:22;;;;;;;30.20;12.50;;;;;;;-2.24;51.71;100343.06;109136;1277;138896;-62
2022/03/28 01:40:51;;;;;;;29.20;11.50;;;;;;;-2.25;51.78;100342.12;109255;1277;22426;-62
2022/03/28 01:43:20;;;;;;;32.90;11.20;;;;;;;-2.26;51.75;100337.80;108957;1279;137909;-62
2022/03/28 01:45:48;;;;;;;26.50;10.80;;;;;;;-2.28;51.90;100334.98;109266;1277;22257;-63
2022/03/28 01:48:17;;;;;;;25.80;11.50;;;;;;;-2.30;52.04;100337.15;109210;1277;23638;-63
2022/03/28 01:50:47;;;;;;;25.20;10.00;;;;;;;-2.33;52.14;100336.38;109134;1277;138375;-63
2022/03/28 01:53:15;;;;;;;18.90;8.20;;;;;;;-2.33;52.14;100330.10;109246;1277;22445;-63
2022/03/28 01:55:44;;;;;;;19.20;9.10;;;;;;;-2.33;52.16;100329.58;109397;1274;138035;-60
2022/03/28 01:58:12;;;;;;;20.90;8.90;;;;;;;-2.32;52.14;100327.30;109469;1274;23344;-59
2022/03/28 02:00:40;;;;;;;16.90;7.00;;;;;;;-2.30;52.21;100320.94;109513;1274;22272;-59
2022/03/28 02:03:09;;;;;;;16.90;8.00;;;;;;;-2.29;52.04;100316.73;109415;1274;139247;-60
2022/03/28 02:05:37;;;;;;;23.60;7.70;;;;;;;-2.28;52.05;100314.50;109496;1274;22528;-60
2022/03/28 02:08:06;;;;;;;18.50;7.10;;;;;;;-2.28;51.89;100316.08;109421;1273;137673;-59
2022/03/28 02:10:34;;;;;;;17.10;6.80;;;;;;;-2.28;52.07;100318.38;109428;1274;23084;-59
2022/03/28 02:13:04;;;;;;;18.40;7.20;;;;;;;-2.27;51.97;100320.79;109366;1274;139741;-60
2022/03/28 02:15:32;;;;;;;19.90;8.20;;;;;;;-2.27;51.98;100312.92;109455;1274;22434;-59
2022/03/28 02:18:00;;;;;;;21.90;7.30;;;;;;;-2.24;51.86;100314.30;109488;1274;22530;-60
2022/03/28 02:20:29;;;;;;;15.50;6.80;;;;;;;-2.23;51.88;100317.16;109390;1273;137640;-59
2022/03/28 02:22:57;;;;;;;15.70;6.60;;;;;;;-2.21;51.95;100312.88;109509;1273;22434;-60
2022/03/28 02:25:25;;;;;;;17.40;6.20;;;;;;;-2.19;51.83;100306.95;109401;1271;139057;-60
2022/03/28 02:27:53;;;;;;;15.20;6.00;;;;;;;-2.18;51.83;100308.27;109503;1274;22510;-59
2022/03/28 02:30:21;;;;;;;18.70;7.60;;;;;;;-2.16;51.85;100313.55;109483;1274;23060;-59
2022/03/28 02:32:49;;;;;;;18.30;7.50;;;;;;;-2.14;51.80;100317.48;109359;1274;138659;-60
2022/03/28 02:35:17;;;;;;;18.90;7.20;;;;;;;-2.12;51.88;100313.41;109499;1273;22426;-60
2022/03/28 02:37:47;;;;;;;26.70;10.40;;;;;;;-2.11;51.72;100312.42;109372;1273;137886;-59
2022/03/28 02:40:16;;;;;;;32.40;11.20;;;;;;;-2.08;51.83;100304.44;109370;1276;23127;-59
2022/03/28 02:42:44;;;;;;;27.30;9.70;;;;;;;-2.05;51.76;100291.71;109465;1274;22481;-60
2022/03/28 02:45:13;;;;;;;17.50;8.00;;;;;;;-2.02;51.76;100278.74;109376;1274;138592;-61
2022/03/28 02:47:41;;;;;;;26.60;7.30;;;;;;;-2.00;51.90;100285.75;109483;1274;22392;-59
2022/03/28 02:50:10;;;;;;;17.90;8.20;;;;;;;-1.98;51.89;100294.30;109321;1273;137890;-60
2022/03/28 02:52:38;;;;;;;18.60;7.10;;;;;;;-1.97;52.11;100284.55;109368;1275;22383;-59
2022/03/28 02:55:08;;;;;;;27.30;8.80;;;;;;;-1.94;52.15;100289.04;109356;1274;139126;-60
2022/03/28 02:57:37;;;;;;;22.20;8.60;;;;;;;-1.90;52.02;100292.96;109455;1274;22583;-59
2022/03/28 03:00:07;;;;;;;23.80;8.20;;;;;;;-1.87;52.10;100297.75;109453;1274;22380;-60
2022/03/28 03:02:36;;;;;;;28.70;9.70;;;;;;;-1.83;52.02;100289.85;109276;1274;139444;-59
2022/03/28 03:05:06;;;;;;;24.40;9.00;;;;;;;-1.79;51.91;100285.37;109457;1274;23021;-60
2022/03/28 03:07:35;;;;;;;21.90;8.30;;;;;;;-1.75;51.96;100292.48;109338;1274;139286;-60
2022/03/28 03:10:04;;;;;;;25.60;10.00;;;;;;;-1.72;51.79;100290.41;109433;1274;22527;-59
2022/03/28 03:12:34;;;;;;;23.20;8.80;;;;;;;-1.68;51.76;100287.79;109294;1274;22421;-59
2022/03/28 03:15:03;;;;;;;26.60;9.70;;;;;;;-1.64;51.74;100288.79;109346;1274;138233;-60
2022/03/28 03:17:31;;;;;;;26.00;11.00;;;;;;;-1.61;51.66;100279.77;109436;1274;22516;-59
2022/03/28 03:19:59;;;;;;;32.90;11.50;;;;;;;-1.59;51.67;100286.26;109353;1274;137842;-59
2022/03/28 03:22:27;;;;;;;39.60;13.20;;;;;;;-1.57;51.74;100281.75;109443;1274;23201;-59
2022/03/28 03:24:56;;;;;;;40.00;16.40;;;;;;;-1.54;51.56;100273.45;109350;1274;139870;-59
2022/03/28 03:27:24;;;;;;;56.20;21.50;;;;;;;-1.52;51.77;100271.25;105276;1274;22589;-62
2022/03/28 03:29:52;;;;;;;62.00;22.00;;;;;;;-1.49;51.77;100266.70;109477;1273;22502;-62
2022/03/28 03:32:20;;;;;;;47.30;22.20;;;;;;;-1.46;51.78;100260.52;109369;1274;139015;-62
2022/03/28 03:34:49;;;;;;;49.60;20.90;;;;;;;-1.46;51.67;100260.10;109445;1274;22413;-62
2022/03/28 03:37:17;;;;;;;45.20;18.50;;;;;;;-1.44;51.83;100256.51;109377;1274;139227;-62
2022/03/28 03:39:45;;;;;;;35.00;12.60;;;;;;;-1.42;52.06;100260.76;109487;1274;22675;-62
2022/03/28 03:42:13;;;;;;;27.90;11.20;;;;;;;-1.39;51.99;100258.15;109494;1273;22389;-63
2022/03/28 03:44:41;;;;;;;20.70;9.20;;;;;;;-1.38;52.09;100259.27;109366;1274;138225;-62
2022/03/28 03:47:10;;;;;;;17.80;8.10;;;;;;;-1.36;51.92;100257.70;109478;1274;22414;-62
2022/03/28 03:49:39;;;;;;;19.80;7.20;;;;;;;-1.37;51.94;100254.96;109364;1274;138387;-62
2022/03/28 03:52:07;;;;;;;21.20;7.10;;;;;;;-1.37;52.00;100257.94;109500;1274;22413;-63
2022/03/28 03:54:36;;;;;;;16.00;7.20;;;;;;;-1.37;52.07;100257.27;109511;1274;22480;-62
2022/03/28 03:57:06;;;;;;;14.30;6.20;;;;;;;-1.37;52.02;100256.30;109391;1274;139873;-62
2022/03/28 03:59:34;;;;;;;13.90;6.40;;;;;;;-1.37;52.08;100254.51;109512;1274;23131;-62
2022/03/28 04:02:02;;;;;;;14.80;5.70;;;;;;;-1.35;52.16;100250.66;109368;1274;138802;-63
2022/03/28 04:04:31;;;;;;;11.50;5.10;;;;;;;-1.34;52.10;100246.19;109483;1274;22554;-63
2022/03/28 04:06:59;;;;;;;11.30;5.00;;;;;;;-1.32;52.14;100251.34;106008;1274;139005;-60
2022/03/28 04:09:27;;;;;;;21.20;7.20;;;;;;;-1.30;52.11;100252.02;105054;1274;25125;-59
2022/03/28 04:11:55;;;;;;;13.90;5.90;;;;;;;-1.27;52.12;100256.21;109387;1274;23365;-59
2022/03/28 04:14:24;;;;;;;15.10;6.10;;;;;;;-1.26;52.09;100251.73;109383;1274;138154;-60
2022/03/28 04:17:13;;;;;;;11.60;4.80;;;;;;;-1.23;52.12;100250.74;109484;1273;22438;-59
2022/03/28 04:19:43;;;;;;;11.40;5.40;;;;;;;-1.20;52.30;100247.72;109413;1274;138270;-59
2022/03/28 04:22:11;;;;;;;13.20;5.60;;;;;;;-1.17;52.17;100251.14;109490;1273;23545;-59
2022/03/28 04:24:39;;;;;;;12.70;5.20;;;;;;;-1.14;52.23;100246.34;109497;1273;22690;-60
2022/03/28 04:27:07;;;;;;;19.00;6.10;;;;;;;-1.12;52.31;100245.58;109358;1274;138133;-59
2022/03/28 04:29:36;;;;;;;10.80;5.30;;;;;;;-1.10;52.31;100245.31;109468;1274;22398;-59
2022/03/28 04:32:05;;;;;;;13.50;5.50;;;;;;;-1.06;52.23;100243.52;109370;1273;137794;-59
2022/03/28 04:34:33;;;;;;;14.30;6.30;;;;;;;-1.02;52.35;100239.75;109497;1274;23326;-59
2022/03/28 04:37:01;;;;;;;13.90;7.10;;;;;;;-0.99;52.05;100236.23;109399;1273;139874;-59
2022/03/28 04:39:30;;;;;;;11.70;5.70;;;;;;;-0.96;52.14;100232.42;109481;1274;22449;-60
2022/03/28 04:41:59;;;;;;;15.30;7.10;;;;;;;-0.92;52.11;100232.40;109519;1273;22386;-60
2022/03/28 04:44:27;;;;;;;9.70;4.90;;;;;;;-0.88;51.88;100225.73;109373;1273;137877;-60
2022/03/28 04:46:55;;;;;;;9.20;5.10;;;;;;;-0.85;51.86;100218.99;109489;1274;22404;-60
2022/03/28 04:49:24;;;;;;;9.60;4.60;;;;;;;-0.81;51.74;100210.80;109377;1273;139299;-59
2022/03/28 04:51:52;;;;;;;7.50;4.00;;;;;;;-0.77;51.78;100199.96;109497;1273;22295;-59
2022/03/28 04:54:20;;;;;;;10.10;3.80;;;;;;;-0.71;52.06;100196.52;109496;1273;22466;-59
2022/03/28 04:56:48;;;;;;;8.30;4.20;;;;;;;-0.65;51.79;100204.67;109385;1274;138594;-59
2022/03/28 04:59:17;;;;;;;6.50;3.10;;;;;;;-0.61;51.82;100210.05;109494;1274;22416;-60
2022/03/28 05:01:45;;;;;;;13.00;3.40;;;;;;;-0.56;51.64;100208.09;109370;1274;138350;-59
2022/03/28 05:04:14;;;;;;;12.00;4.00;;;;;;;-0.53;51.57;100211.60;109490;1274;22571;-59
2022/03/28 05:06:42;;;;;;;14.10;7.50;;;;;;;-0.46;51.46;100203.77;109517;1274;23682;-60
2022/03/28 05:09:30;;;;;;;12.10;6.80;;;;;;;-0.42;51.25;100199.10;109373;1274;138384;-59
2022/03/28 05:11:58;;;;;;;11.50;4.80;;;;;;;-0.37;51.25;100189.83;109509;1273;23191;-59
2022/03/28 05:14:45;;;;;;;13.60;4.80;;;;;;;-0.31;51.17;100187.25;109380;1273;138348;-59
2022/03/28 05:17:15;;;;;;;10.30;4.50;;;;;;;-0.26;51.53;100187.55;109514;1274;22443;-60
2022/03/28 05:19:43;;;;;;;9.30;3.30;;;;;;;-0.20;51.39;100188.34;109397;1274;138670;-60
2022/03/28 05:22:11;;;;;;;8.60;3.10;;;;;;;-0.14;51.28;100196.42;109516;1274;22404;-60
2022/03/28 05:24:40;;;;;;;8.40;3.80;;;;;;;-0.09;51.05;100201.29;109515;1274;22441;-59
2022/03/28 05:27:08;;;;;;;12.50;5.00;;;;;;;-0.04;50.69;100195.80;109382;1274;138322;-59
2022/03/28 05:29:36;;;;;;;8.20;4.30;;;;;;;0.01;50.88;100197.53;109492;1274;22534;-59
2022/03/28 05:32:05;;;;;;;11.10;3.30;;;;;;;0.06;50.67;100196.48;109369;1271;138834;-59
2022/03/28 05:34:33;;;;;;;10.50;3.30;;;;;;;0.10;50.34;100188.63;109465;1274;22435;-60
2022/03/28 05:37:03;;;;;;;10.80;4.80;;;;;;;0.14;50.32;100186.16;106102;1274;23277;-58
2022/03/28 05:39:32;;;;;;;10.50;3.40;;;;;;;0.18;50.05;100182.89;104808;1274;138112;-59
2022/03/28 05:42:01;;;;;;;4.70;2.50;;;;;;;0.23;49.95;100180.02;104936;1274;24894;-59
2022/03/28 05:44:29;;;;;;;6.60;2.60;;;;;;;0.26;49.95;100176.77;109298;1274;137463;-59
2022/03/28 05:46:58;;;;;;;10.20;3.80;;;;;;;0.30;49.76;100175.26;109464;1274;22610;-59
2022/03/28 05:49:26;;;;;;;9.40;3.90;;;;;;;0.34;49.51;100169.77;109223;1274;138064;-59
2022/03/28 05:51:54;;;;;;;8.70;3.70;;;;;;;0.39;49.71;100173.34;109368;1276;22373;-59
2022/03/28 05:54:22;;;;;;;9.20;2.60;;;;;;;0.44;49.85;100164.02;109378;1276;22425;-59
2022/03/28 05:56:51;;;;;;;8.00;2.80;;;;;;;0.49;49.72;100155.71;109224;1274;138573;-60
2022/03/28 05:59:19;;;;;;;8.60;2.90;;;;;;;0.54;49.74;100147.31;109341;1275;22449;-60
2022/03/28 06:01:49;;;;;;;6.10;2.90;;;;;;;0.60;49.67;100148.13;109269;1275;137556;-60
2022/03/28 06:04:18;;;;;;;8.60;2.80;;;;;;;0.66;49.50;100152.29;109443;1274;22443;-60
2022/03/28 06:06:46;;;;;;;10.40;3.30;;;;;;;0.73;49.10;100154.21;109343;1275;22508;-60
2022/03/28 06:09:14;;;;;;;8.60;3.60;;;;;;;0.78;49.03;100146.99;109351;1274;139197;-61
2022/03/28 06:11:42;;;;;;;6.50;2.80;;;;;;;0.84;49.16;100142.70;109480;1274;22475;-60
2022/03/28 06:14:10;;;;;;;8.00;2.80;;;;;;;0.92;49.09;100140.68;109350;1274;137855;-59
2022/03/28 06:16:38;;;;;;;8.70;3.20;;;;;;;1.01;49.00;100137.66;109359;1275;22522;-59
2022/03/28 06:19:06;;;;;;;11.60;3.70;;;;;;;1.10;49.17;100134.26;109363;1276;22484;-59
2022/03/28 06:21:34;;;;;;;9.80;3.50;;;;;;;1.20;48.91;100130.36;109248;1277;138822;-59
2022/03/28 06:24:08;;;;;;;5.40;2.70;;;;;;;1.31;48.65;100133.85;109395;1276;22422;-59
2022/03/28 06:26:36;;;;;;;7.70;4.00;;;;;;;1.41;48.74;100125.82;109230;1276;137831;-59
2022/03/28 06:29:04;;;;;;;13.20;3.80;;;;;;;1.50;48.55;100122.77;109422;1274;22479;-58
2022/03/28 06:31:33;;;;;;;9.10;3.70;;;;;;;1.59;48.38;100120.63;109298;1275;138710;-58
2022/03/28 06:34:02;;;;;;;8.40;2.90;;;;;;;1.66;48.06;100115.80;109373;1276;23515;-58
2022/03/28 06:36:34;;;;;;;12.20;3.60;;;;;;;1.73;47.60;100105.98;109481;1274;22559;-58
2022/03/28 06:39:03;;;;;;;12.70;4.00;;;;;;;1.80;47.19;100097.06;109369;1274;139280;-58
2022/03/28 06:41:33;;;;;;;9.10;3.60;;;;;;;1.88;47.24;100090.38;109351;1276;22423;-63
2022/03/28 06:44:01;;;;;;;9.10;3.00;;;;;;;1.95;47.05;100087.70;109260;1276;138257;-63
2022/03/28 06:46:32;;;;;;;6.50;2.40;;;;;;;2.02;46.55;100078.94;109477;1274;22241;-63
2022/03/28 06:49:00;;;;;;;8.30;2.60;;;;;;;2.07;46.06;100075.03;109372;1276;22416;-63
2022/03/28 06:51:32;;;;;;;5.80;2.70;;;;;;;2.13;45.85;100069.36;109230;1276;137005;-63
2022/03/28 06:54:03;;;;;;;7.20;2.30;;;;;;;2.20;45.53;100059.85;109466;1274;22397;-63
2022/03/28 06:56:37;;;;;;;7.00;2.30;;;;;;;2.26;45.00;100057.49;109267;1276;137389;-62
2022/03/28 06:59:06;;;;;;;7.60;2.50;;;;;;;2.32;44.74;100057.66;109472;1274;23251;-61
2022/03/28 07:01:36;;;;;;;11.40;4.90;;;;;;;2.37;44.67;100065.63;109256;1276;138967;-61
2022/03/28 07:04:05;;;;;;;5.10;1.70;;;;;;;2.43;44.44;100070.45;109356;1276;23564;-62
2022/03/28 07:06:34;;;;;;;6.10;2.00;;;;;;;2.47;44.13;100068.12;109384;1277;23585;-62
2022/03/28 07:09:04;;;;;;;3.80;1.60;;;;;;;2.55;43.77;100069.89;109259;1275;137949;-62
2022/03/28 07:11:38;;;;;;;4.00;1.80;;;;;;;2.62;43.79;100065.61;109376;1276;22278;-62
2022/03/28 07:14:07;;;;;;;8.20;2.00;;;;;;;2.70;43.85;100060.23;109281;1277;137508;-62
2022/03/28 07:16:35;;;;;;;5.60;1.70;;;;;;;2.78;43.16;100048.07;106780;1277;26063;-61
2022/03/28 07:19:04;;;;;;;7.20;2.30;;;;;;;2.86;43.05;100044.55;109340;1275;23297;-59
2022/03/28 07:21:34;;;;;;;3.40;1.60;;;;;;;2.92;42.48;100042.34;109260;1277;137098;-58
2022/03/28 07:24:02;;;;;;;4.50;1.90;;;;;;;2.95;41.98;100031.77;109362;1276;22456;-58
2022/03/28 07:26:30;;;;;;;7.80;2.40;;;;;;;2.97;41.86;100028.97;109241;1276;139046;-58
2022/03/28 07:29:02;;;;;;;6.60;2.00;;;;;;;2.99;41.71;100022.20;109375;1277;22517;-58
2022/03/28 07:31:32;;;;;;;8.20;2.40;;;;;;;3.02;42.02;100011.78;109272;1275;138046;-59
2022/03/28 07:36:47;;;;;;;6.30;2.20;;;;;;;3.09;41.78;100009.05;109380;1276;22683;-59
2022/03/28 07:39:16;;;;;;;7.20;3.30;;;;;;;3.15;41.88;100003.25;109275;1276;137396;-59
2022/03/28 07:41:44;;;;;;;9.30;3.40;;;;;;;3.22;41.85;99985.63;109476;1274;22767;-59
2022/03/28 07:44:13;;;;;;;10.70;3.50;;;;;;;3.29;41.71;99978.63;109252;1277;138196;-59
2022/03/28 07:46:43;;;;;;;4.90;2.50;;;;;;;3.39;41.73;99981.61;106620;1274;24151;-61
2022/03/28 07:49:12;;;;;;;6.40;2.60;;;;;;;3.49;41.49;99975.44;109234;1276;137702;-59
2022/03/28 07:51:40;;;;;;;6.40;2.30;;;;;;;3.59;41.33;99968.07;109011;1274;580696;-59
2022/03/28 07:55:30;;;;;;;6.50;2.50;;;;;;;3.75;41.14;99951.48;101742;1309;545956;-59
2022/03/28 07:58:02;;;;;;;4.70;1.70;;;;;;;3.85;40.73;99947.16;104012;1286;24647;-61
2022/03/28 08:00:30;;;;;;;6.40;1.80;;;;;;;3.95;40.52;99938.97;108364;1285;23073;-59
2022/03/28 08:02:58;;;;;;;5.60;2.30;;;;;;;4.05;40.54;99934.97;108257;1286;136675;-60
2022/03/28 08:05:27;;;;;;;5.10;1.70;;;;;;;4.14;40.70;99926.84;108368;1286;22471;-60
2022/03/28 08:07:55;;;;;;;5.60;1.60;;;;;;;4.25;40.63;99921.83;108266;1285;137279;-60
2022/03/28 08:10:24;;;;;;;6.00;2.50;;;;;;;4.34;40.41;99916.11;108511;1283;22469;-60
2022/03/28 08:12:53;;;;;;;3.60;1.80;;;;;;;4.44;40.35;99912.32;108583;1282;22448;-59
2022/03/28 08:15:22;;;;;;;5.00;2.40;;;;;;;4.60;40.39;99908.55;108513;1283;136778;-61
2022/03/28 08:17:51;;;;;;;9.20;2.10;;;;;;;4.77;40.43;99903.48;108643;1283;22447;-60
2022/03/28 08:20:39;;;;;;;;;;;;;;;4.99;40.00;99898.92;108530;1283;136969;-61
2022/03/28 08:23:08;;;;;;;11.00;2.30;;;;;;;5.17;39.60;99891.02;108675;1282;23160;-60
2022/03/28 08:25:36;;;;;;;5.00;2.00;;;;;;;5.35;39.41;99884.40;108520;1283;137935;-60
2022/03/28 08:28:04;;;;;;;8.30;1.70;;;;;;;5.52;39.59;99876.38;108665;1283;22584;-61
2022/03/28 08:30:32;;;;;;;9.00;2.50;;;;;;;5.69;39.19;99873.36;108647;1283;22743;-60
2022/03/28 08:33:01;;;;;;;7.80;1.90;;;;;;;5.88;39.31;99865.69;108457;1283;138108;-60
2022/03/28 08:35:29;;;;;;;3.40;1.90;;;;;;;6.05;39.28;99855.88;108594;1283;22432;-60
2022/03/28 08:38:00;;;;;;;7.80;1.90;;;;;;;6.23;38.91;99850.02;108370;1284;136538;-60
2022/03/28 08:40:29;;;;;;;19.60;5.70;;;;;;;6.40;38.15;99840.50;108478;1284;23511;-60
2022/03/28 08:42:57;;;;;;;10.10;4.30;;;;;;;6.53;38.09;99840.33;108486;1284;22443;-60
2022/03/28 08:45:25;;;;;;;10.40;2.90;;;;;;;6.67;38.49;99834.55;108456;1283;137155;-60
2022/03/28 08:47:53;;;;;;;3.90;2.10;;;;;;;6.83;38.43;99826.70;108574;1283;22530;-60
2022/03/28 08:50:42;;;;;;;5.70;1.70;;;;;;;7.01;38.13;99818.79;109229;1273;136722;-61
2022/03/28 08:53:11;;;;;;;6.80;2.60;;;;;;;7.16;37.46;99810.68;109490;1273;22506;-60
2022/03/28 08:55:41;;;;;;;14.20;2.90;;;;;;;7.26;36.91;99800.35;108421;1273;136838;-60
2022/03/28 08:58:10;;;;;;;9.10;2.70;;;;;;;7.36;36.89;99800.46;104968;1273;24945;-60
2022/03/28 09:00:38;;;;;;;7.00;2.50;;;;;;;7.46;37.09;99798.08;105022;1273;25187;-60
2022/03/28 09:03:06;;;;;;;7.50;2.40;;;;;;;7.57;37.12;99793.46;109370;1273;137140;-60
2022/03/28 09:05:38;;;;;;;7.00;2.60;;;;;;;7.65;36.93;99786.40;109482;1273;22627;-60
2022/03/28 09:08:08;;;;;;;8.40;2.20;;;;;;;7.71;36.76;99788.09;109374;1272;136626;-61
2022/03/28 09:10:49;;;;;;;6.30;2.50;;;;;;;7.79;36.64;99777.45;109498;1273;22403;-60
2022/03/28 09:13:19;;;;;;;7.40;3.10;;;;;;;7.85;37.05;99772.52;109387;1273;137079;-61
2022/03/28 09:15:55;;;;;;;8.10;2.50;;;;;;;7.89;36.32;99767.48;109493;1273;22406;-61
2022/03/28 09:18:31;;;;;;;11.20;2.80;;;;;;;7.95;36.23;99770.38;109514;1271;22243;-59
2022/03/28 09:21:04;;;;;;;12.50;2.70;;;;;;;8.01;35.92;99763.69;109311;1274;137734;-59
2022/03/28 09:23:52;;;;;;;12.70;3.00;;;;;;;8.06;36.49;99762.30;109488;1273;22215;-60
2022/03/28 09:26:24;;;;;;;9.90;2.80;;;;;;;8.14;36.49;99750.97;109378;1273;136836;-59
2022/03/28 09:29:00;;;;;;;12.80;3.10;;;;;;;8.24;36.27;99748.63;109503;1273;22604;-60
2022/03/28 09:31:30;;;;;;;23.10;3.10;;;;;;;8.31;36.41;99737.84;109371;1273;137004;-60
2022/03/28 09:34:11;;;;;;;12.40;2.70;;;;;;;8.40;35.93;99729.54;109424;1273;22445;-59
2022/03/28 09:36:51;;;;;;;10.40;2.30;;;;;;;8.45;35.61;99722.27;109537;1273;22680;-60
2022/03/28 09:39:25;;;;;;;14.50;3.50;;;;;;;8.50;36.06;99714.11;109329;1273;137661;-60
2022/03/28 09:42:03;;;;;;;7.40;2.30;;;;;;;8.58;36.16;99713.36;109500;1273;22511;-60
2022/03/28 09:44:42;;;;;;;12.50;3.00;;;;;;;8.67;35.68;99706.47;109395;1273;138462;-60
2022/03/28 09:47:16;;;;;;;5.20;2.20;;;;;;;8.73;35.71;99699.11;109472;1273;23524;-60
2022/03/28 09:49:46;;;;;;;10.90;4.00;;;;;;;8.79;35.73;99688.30;109372;1271;137579;-60
2022/03/28 09:52:17;;;;;;;8.50;2.60;;;;;;;8.84;35.55;99688.72;109504;1273;22408;-60
2022/03/28 09:54:50;;;;;;;7.20;2.50;;;;;;;8.91;35.70;99680.48;109497;1273;23124;-60
2022/03/28 09:57:31;;;;;;;7.70;2.80;;;;;;;8.98;35.56;99674.74;109403;1272;137790;-60
2022/03/28 10:00:19;;;;;;;8.00;2.40;;;;;;;9.04;35.27;99662.31;109507;1273;22492;-60
2022/03/28 10:02:49;;;;;;;5.90;2.20;;;;;;;9.09;35.91;99665.55;109343;1273;137382;-60
2022/03/28 10:05:17;;;;;;;13.20;2.20;;;;;;;9.18;35.80;99657.23;109428;1273;23263;-61
2022/03/28 10:08:05;;;;;;;42.60;4.90;;;;;;;9.29;35.36;99652.83;109394;1272;137279;-60
2022/03/28 10:10:34;;;;;;;10.80;2.30;;;;;;;9.37;35.16;99654.77;109481;1273;22410;-61
2022/03/28 10:13:03;;;;;;;11.00;2.80;;;;;;;9.41;34.53;99642.21;109492;1271;22448;-60
2022/03/28 10:15:31;;;;;;;9.80;2.20;;;;;;;9.42;34.73;99638.69;109378;1271;137954;-60
2022/03/28 10:17:59;;;;;;;9.30;2.60;;;;;;;9.45;35.06;99637.55;109421;1273;22944;-60
2022/03/28 10:20:27;;;;;;;11.00;3.90;;;;;;;9.52;34.77;99620.90;109192;1273;137020;-61
2022/03/28 10:23:04;;;;;;;15.80;3.70;;;;;;;9.58;34.78;99618.10;109474;1273;23233;-60
2022/03/28 10:25:33;;;;;;;6.20;2.50;;;;;;;9.63;34.60;99610.02;109335;1273;140521;-61
2022/03/28 10:28:00;;;;;;;6.70;2.70;;;;;;;9.68;34.87;99607.70;109321;1272;22585;-60
2022/03/28 10:30:30;;;;;;;9.30;2.50;;;;;;;9.77;35.05;99603.16;109466;1273;22607;-60
2022/03/28 10:33:16;;;;;;;8.70;2.50;;;;;;;9.88;34.64;99594.23;109406;1273;138461;-60
2022/03/28 10:36:07;;;;;;;12.50;2.80;;;;;;;9.96;34.29;99595.46;109519;1272;22403;-61
2022/03/28 10:38:35;;;;;;;14.80;2.70;;;;;;;9.99;34.13;99590.27;109386;1273;137172;-60
2022/03/28 10:41:05;;;;;;;9.70;2.80;;;;;;;10.01;34.14;99579.30;109508;1273;22400;-60
2022/03/28 10:43:33;;;;;;;14.00;2.70;;;;;;;10.04;34.23;99577.71;109401;1273;138313;-60
2022/03/28 10:46:09;;;;;;;16.30;3.20;;;;;;;10.08;34.45;99567.54;109542;1273;22396;-60
2022/03/28 10:48:40;;;;;;;4.00;2.00;;;;;;;10.12;34.31;99563.71;109449;1273;23632;-60
2022/03/28 10:51:17;;;;;;;11.60;2.10;;;;;;;10.15;34.43;99557.48;109429;1273;137990;-60
2022/03/28 10:53:58;;;;;;;9.50;2.80;;;;;;;10.20;34.37;99550.94;109490;1273;23162;-60
2022/03/28 10:56:34;;;;;;;6.40;2.60;;;;;;;10.25;34.12;99540.32;109405;1273;137520;-60
2022/03/28 10:59:07;;;;;;;7.10;2.90;;;;;;;10.32;34.45;99527.98;109490;1272;22402;-60
2022/03/28 11:01:36;;;;;;;7.30;3.20;;;;;;;10.41;34.72;99524.32;109359;1273;137947;-59
2022/03/28 11:04:06;;;;;;;12.00;2.10;;;;;;;10.50;33.96;99522.02;109423;1273;22389;-60
2022/03/28 11:06:47;;;;;;;15.70;3.30;;;;;;;10.56;33.73;99519.93;109493;1273;22391;-59
2022/03/28 11:09:50;;;;;;;12.70;3.10;;;;;;;10.59;33.73;99511.80;109354;1273;139135;-60
2022/03/28 11:12:19;;;;;;;11.90;3.50;;;;;;;10.63;33.85;99499.14;109524;1272;22407;-60
2022/03/28 11:14:50;;;;;;;10.10;2.70;;;;;;;10.65;33.62;99487.44;109354;1273;138925;-60
2022/03/28 11:17:20;;;;;;;25.40;3.30;;;;;;;10.67;33.44;99482.18;109496;1273;22577;-60
2022/03/28 11:20:08;;;;;;;14.10;3.00;;;;;;;10.66;33.43;99485.17;109417;1273;137511;-60
2022/03/28 11:22:54;;;;;;;14.80;3.40;;;;;;;10.68;33.82;99478.36;109500;1272;22448;-60
2022/03/28 11:25:28;;;;;;;10.60;3.50;;;;;;;10.73;33.65;99478.62;109388;1273;138510;-60
2022/03/28 11:28:16;;;;;;;14.90;3.00;;;;;;;10.78;33.44;99467.34;109428;1274;22426;-61
2022/03/28 11:30:44;;;;;;;13.70;3.20;;;;;;;10.85;33.69;99464.81;109461;1273;22414;-60
2022/03/28 11:33:15;;;;;;;11.40;3.40;;;;;;;10.90;33.73;99461.59;109380;1273;137279;-60